Meteo Giornale » Osservazioni meteo Malaysia » Kuala Lumpur
ore: 17:00 - Osservazioni Meteo Kuala Lumpur
Lat. 3° 8' N Lon. 101° 33' E Alt. 27 metri s.l.m.
30 °C
Poco Nuvoloso
Temp. 24 Ore
27 °C
34 °C
Nord
5.5 Km/h
Dew point 25 °C
Umidità 74 %
Visibilità 9 Km
Il sole sorge alle ore 07:08
Il sole tramonta alle ore 19:19
| Data e Ora | Cielo e Fenomeni | T °C | DP °C | Um. % | Pres. hPa | Vis. km | Vento km/h | |
|---|---|---|---|---|---|---|---|---|
| Oggi h: 17:00 | Poco Nuvoloso | 30 | 25 | 74 | 1009 | 9 | N 5.5 | |
| Oggi h: 16:00 | Poco Nuvoloso | 30 | 25 | 74 | 1010 | 9 | N/NE 7.4 | |
| Oggi h: 15:00 | Poco Nuvoloso | 28 | 24 | 78 | 1010 | 9 | N 3.7 | |
| Oggi h: 14:00 | Temporale | 29 | 25 | 79 | 1012 | 8 | N 7.4 | |
| Oggi h: 13:02 | Temporale | 33 | 24 | 59 | 1011 | 10 | SE 14.8 | |
| Oggi h: 13:00 | Temporale | 34 | 24 | 56 | 1011 | 10 | S/SE 13 | |
| Oggi h: 12:52 | Temporale | 34 | 25 | 59 | 1011 | 10 | S 14.8 | |
| Oggi h: 12:00 | Poco Nuvoloso | 33 | 25 | 62 | 1012 | 10 | E 7.4 | |
| Oggi h: 11:00 | Poco Nuvoloso | 32 | 25 | 66 | 1013 | 10 | N 9.3 | |
| Oggi h: 10:00 | Poco Nuvoloso | 31 | 24 | 66 | 1012 | 10 | E 11.1 | |
| Oggi h: 09:00 | Poco Nuvoloso | 30 | 23 | 66 | 1012 | 10 | N 5.5 | |
| Oggi h: 08:00 | Poco Nuvoloso | 27 | 23 | 78 | 1012 | 10 | N 0 | |
| Oggi h: 07:00 | Poco Nuvoloso | 27 | 23 | 78 | 1011 | 10 | N 0 | |
| Oggi h: 06:00 | Poco Nuvoloso | 27 | 23 | 78 | 1011 | 10 | N 0 | |
| Oggi h: 05:00 | Poco Nuvoloso | 27 | 23 | 78 | 1011 | 10 | N 0 | |
| Oggi h: 04:00 | Poco Nuvoloso | 27 | 24 | 83 | 1010 | 10 | N 3.7 | |
| Oggi h: 03:00 | Poco Nuvoloso | 28 | 24 | 78 | 1011 | 10 | N 1.8 | |
| Oggi h: 02:00 | Poco Nuvoloso | 28 | 24 | 78 | 1011 | 10 | N 1.8 | |
| Oggi h: 01:00 | Poco Nuvoloso | 28 | 24 | 78 | 1011 | 10 | N 0 | |
| Oggi h: 00:00 | Poco Nuvoloso | 29 | 24 | 74 | 1012 | 10 | N 0 | |
| Ieri h: 23:00 | Poco Nuvoloso | 29 | 23 | 70 | 1011 | 10 | N 5.5 | |
| Ieri h: 22:00 | Poco Nuvoloso | 30 | 24 | 70 | 1011 | 10 | N 5.5 | |
| Ieri h: 21:00 | Poco Nuvoloso | 30 | 24 | 70 | 1011 | 10 | SE 9.3 | |
| Ieri h: 20:00 | Poco Nuvoloso | 30 | 23 | 66 | 1010 | 10 | SE 9.3 | |
| Ieri h: 19:00 | Poco Nuvoloso | 31 | 22 | 58 | 1009 | 10 | E/SE 14.8 | |



